createdAt,value
2018-11-02T00:00:31.929Z,40.67
2018-11-02T00:03:03.411Z,39.25
2018-11-02T00:05:39.806Z,40.83
2018-11-02T00:08:16.909Z,40.90
2018-11-02T00:11:04.704Z,36.83
2018-11-02T00:13:36.688Z,36.83
2018-11-02T00:16:08.960Z,35.05
2018-11-02T00:18:40.895Z,33.63
2018-11-02T00:21:13.471Z,38.10
2018-11-02T00:23:45.483Z,31.27
2018-11-02T00:26:17.589Z,34.85
2018-11-02T00:28:49.478Z,36.03
2018-11-02T00:31:22.082Z,40.90
2018-11-02T00:33:54.598Z,38.63
2018-11-02T00:36:26.316Z,42.30
2018-11-02T00:38:57.958Z,38.48
2018-11-02T00:41:29.676Z,34.35
2018-11-02T00:44:01.658Z,34.35
2018-11-02T00:49:09.828Z,38.13
2018-11-02T00:51:41.764Z,41.23
2018-11-02T00:56:50.281Z,37.13
2018-11-02T00:59:22.038Z,33.70
2018-11-02T01:01:54.779Z,33.73
2018-11-02T01:04:26.679Z,41.50
2018-11-02T01:06:58.548Z,31.68
2018-11-02T01:09:30.934Z,36.50
2018-11-02T01:12:03.133Z,33.35
2018-11-02T01:14:35.331Z,30.10
2018-11-02T01:17:07.617Z,42.23
2018-11-02T01:19:39.915Z,36.93
2018-11-02T01:22:11.888Z,32.47
2018-11-02T01:24:43.724Z,37.87
2018-11-02T01:27:15.578Z,35.28
2018-11-02T01:29:47.370Z,32.95
2018-11-02T01:32:20.083Z,38.75
2018-11-02T01:34:52.292Z,29.48
2018-11-02T01:37:24.027Z,29.48
2018-11-02T01:39:56.080Z,29.00
2018-11-02T01:42:28.034Z,34.55
2018-11-02T01:44:59.911Z,28.97
2018-11-02T01:47:32.006Z,34.83
2018-11-02T01:50:03.692Z,23.27
2018-11-02T01:52:35.712Z,32.80
2018-11-02T01:55:08.673Z,32.13
2018-11-02T01:57:40.958Z,38.17
2018-11-02T02:00:13.153Z,41.63
2018-11-02T02:02:45.268Z,36.87
2018-11-02T02:05:17.487Z,36.23
2018-11-02T02:07:49.236Z,39.23
2018-11-02T02:10:21.654Z,42.48
2018-11-02T02:12:53.448Z,28.95
2018-11-02T02:15:25.878Z,33.43
2018-11-02T02:17:57.752Z,30.75
2018-11-02T02:20:29.655Z,25.80
2018-11-02T02:23:01.807Z,35.15
2018-11-02T02:25:34.099Z,30.10
2018-11-02T02:28:07.511Z,27.90
2018-11-02T02:30:39.649Z,23.03
2018-11-02T02:33:12.198Z,30.77
2018-11-02T02:38:24.197Z,38.60
2018-11-02T02:40:55.965Z,21.30
2018-11-02T02:43:28.045Z,28.30
2018-11-02T02:45:59.956Z,23.32
2018-11-02T02:48:32.650Z,25.85
2018-11-02T02:51:04.480Z,30.60
2018-11-02T02:53:36.473Z,37.33
2018-11-02T02:56:08.536Z,32.77
2018-11-02T02:58:40.217Z,33.20
2018-11-02T03:01:12.049Z,27.77
2018-11-02T03:03:44.908Z,36.40
2018-11-02T03:08:52.907Z,33.57
2018-11-02T03:11:32.183Z,21.25
2018-11-02T03:14:04.801Z,30.47
2018-11-02T03:16:36.759Z,23.43
2018-11-02T03:19:08.811Z,25.90
2018-11-02T03:21:41.025Z,29.90
2018-11-02T03:24:14.340Z,31.65
2018-11-02T03:26:46.325Z,25.13
2018-11-02T03:29:18.028Z,34.18
2018-11-02T03:31:50.228Z,32.23
2018-11-02T03:34:22.232Z,27.00
2018-11-02T03:36:54.616Z,21.90
2018-11-02T03:39:26.499Z,33.00
2018-11-02T03:41:58.605Z,29.52
2018-11-02T03:44:30.430Z,33.37
2018-11-02T03:47:02.383Z,37.13
2018-11-02T03:49:38.730Z,35.17
2018-11-02T03:52:10.757Z,34.27
2018-11-02T03:54:42.917Z,30.90
2018-11-02T03:57:14.801Z,30.10
2018-11-02T03:59:47.107Z,28.20
2018-11-02T04:02:19.445Z,29.00
2018-11-02T04:04:51.618Z,28.25
2018-11-02T04:07:23.569Z,35.43
2018-11-02T04:09:55.886Z,33.07
2018-11-02T04:12:28.044Z,36.93
2018-11-02T04:15:00.096Z,40.78
2018-11-02T04:17:32.151Z,34.20
2018-11-02T04:20:04.877Z,31.40
2018-11-02T04:22:36.573Z,32.40
2018-11-02T04:25:08.876Z,34.83
2018-11-02T04:27:45.525Z,28.00
2018-11-02T04:30:18.022Z,27.07
2018-11-02T04:32:50.137Z,33.27
2018-11-02T04:35:21.966Z,33.87
2018-11-02T04:40:30.419Z,35.03
2018-11-02T04:43:02.359Z,29.92
2018-11-02T04:45:40.162Z,38.23
2018-11-02T04:48:12.948Z,21.37
2018-11-02T04:50:45.089Z,31.70
2018-11-02T04:53:17.384Z,27.73
2018-11-02T04:55:49.334Z,29.97
2018-11-02T04:58:21.231Z,35.47
2018-11-02T05:00:53.277Z,31.33
2018-11-02T05:03:25.083Z,42.40
2018-11-02T05:05:57.871Z,30.20
2018-11-02T05:08:30.984Z,36.10
2018-11-02T05:11:02.949Z,29.42
2018-11-02T05:13:35.088Z,26.57
2018-11-02T05:16:07.521Z,32.83
2018-11-02T05:18:39.861Z,24.83
2018-11-02T05:21:12.105Z,34.42
2018-11-02T05:23:44.473Z,30.48
2018-11-02T05:26:16.741Z,43.00
2018-11-02T05:28:48.647Z,33.10
2018-11-02T05:31:20.464Z,29.00
2018-11-02T05:33:52.765Z,21.02
2018-11-02T05:36:25.074Z,35.00
2018-11-02T05:38:57.345Z,34.48
2018-11-02T05:41:29.551Z,32.50
2018-11-02T05:44:02.099Z,33.65
2018-11-02T05:46:34.265Z,38.97
2018-11-02T05:49:06.700Z,37.45
2018-11-02T05:54:16.599Z,37.43
2018-11-02T05:56:48.488Z,42.97
2018-11-02T05:59:21.861Z,45.65
2018-11-02T06:01:53.563Z,48.95
2018-11-02T06:04:26.021Z,39.73
2018-11-02T06:06:58.074Z,48.17
2018-11-02T06:09:31.506Z,35.37
2018-11-02T06:12:04.200Z,48.13
2018-11-02T06:14:36.889Z,48.00
2018-11-02T06:17:08.640Z,44.77
2018-11-02T06:19:40.775Z,40.03
2018-11-02T06:22:13.162Z,33.85
2018-11-02T06:27:22.381Z,31.43
2018-11-02T06:29:54.326Z,33.90
2018-11-02T06:32:26.817Z,35.67
2018-11-02T06:34:58.815Z,36.50
2018-11-02T06:37:30.783Z,46.85
2018-11-02T06:40:02.796Z,43.58
2018-11-02T06:42:34.449Z,38.33
2018-11-02T06:45:07.791Z,37.60
2018-11-02T06:47:40.050Z,30.47
2018-11-02T06:50:12.654Z,37.73
2018-11-02T06:52:44.479Z,28.67
2018-11-02T06:55:16.707Z,39.73
2018-11-02T07:00:25.186Z,27.33
2018-11-02T07:02:57.140Z,34.55
2018-11-02T07:05:32.562Z,34.90
2018-11-02T07:08:05.232Z,32.07
2018-11-02T07:10:37.448Z,30.03
2018-11-02T07:13:10.283Z,31.40
2018-11-02T07:15:42.243Z,29.77
2018-11-02T07:18:14.351Z,29.63
2018-11-02T07:20:46.715Z,29.42
2018-11-02T07:23:19.078Z,41.65
2018-11-02T07:25:51.768Z,31.02
2018-11-02T07:28:24.166Z,31.37
2018-11-02T07:30:56.590Z,27.35
2018-11-02T07:33:28.866Z,27.63
2018-11-02T07:36:03.044Z,26.33
2018-11-02T07:38:35.299Z,40.20
2018-11-02T07:41:13.540Z,34.63
2018-11-02T07:46:21.803Z,39.27
2018-11-02T07:48:54.116Z,33.30
2018-11-02T07:51:27.172Z,31.20
2018-11-02T07:53:59.487Z,37.80
2018-11-02T07:56:32.227Z,36.03
2018-11-02T07:59:04.349Z,31.82
2018-11-02T08:01:36.808Z,43.10
2018-11-02T08:04:09.059Z,31.75
2018-11-02T08:06:41.343Z,38.98
2018-11-02T08:11:49.896Z,37.80
2018-11-02T08:16:58.447Z,35.80
2018-11-02T08:19:30.855Z,32.63
2018-11-02T08:22:03.227Z,32.60
2018-11-02T08:24:35.772Z,27.27
2018-11-02T08:27:08.059Z,29.23
2018-11-02T08:29:40.298Z,28.65
2018-11-02T08:32:12.838Z,33.45
2018-11-02T08:37:21.367Z,32.40
2018-11-02T08:39:57.693Z,37.30
2018-11-02T08:42:30.307Z,35.13
2018-11-02T08:45:02.474Z,31.97
2018-11-02T08:47:35.140Z,27.40
2018-11-02T08:50:08.558Z,36.10
2018-11-02T08:52:40.847Z,37.10
2018-11-02T08:57:49.366Z,31.00
2018-11-02T09:00:21.819Z,35.67
2018-11-02T09:02:54.147Z,21.93
2018-11-02T09:05:26.248Z,36.30
2018-11-02T09:07:59.252Z,23.83
2018-11-02T09:10:31.268Z,29.30
2018-11-02T09:13:03.123Z,31.77
2018-11-02T09:15:35.018Z,24.33
2018-11-02T09:18:06.746Z,35.40
2018-11-02T09:20:39.176Z,28.90
2018-11-02T09:23:11.983Z,28.90
2018-11-02T09:28:19.773Z,25.60
2018-11-02T09:30:54.371Z,24.40
2018-11-02T09:33:26.288Z,29.10
2018-11-02T09:35:58.308Z,21.10
2018-11-02T09:38:30.264Z,31.33
2018-11-02T09:41:02.404Z,36.25
2018-11-02T09:43:34.083Z,24.53
2018-11-02T09:46:07.265Z,24.32
2018-11-02T09:48:39.603Z,34.00
2018-11-02T09:51:11.218Z,28.35
2018-11-02T09:53:43.130Z,27.58
2018-11-02T09:58:51.127Z,30.33
2018-11-02T10:01:24.240Z,20.23
2018-11-02T10:06:32.470Z,20.90
2018-11-02T10:09:04.671Z,23.47
2018-11-02T10:11:36.645Z,22.77
2018-11-02T10:14:08.724Z,25.17
2018-11-02T10:16:41.148Z,19.63
2018-11-02T10:19:12.930Z,21.02
2018-11-02T10:24:21.039Z,22.27
2018-11-02T10:26:53.755Z,21.97
2018-11-02T10:29:25.743Z,24.27
2018-11-02T10:31:57.741Z,18.47
2018-11-02T10:34:30.367Z,21.43
2018-11-02T10:37:03.006Z,15.55
2018-11-02T10:42:12.114Z,18.37
2018-11-02T10:44:45.952Z,13.37
2018-11-02T10:47:18.011Z,16.80
2018-11-02T10:49:49.639Z,13.93
2018-11-02T10:52:21.420Z,16.85
2018-11-02T10:54:53.973Z,14.75
2018-11-02T10:57:26.274Z,18.57
2018-11-02T10:59:58.033Z,14.83
2018-11-02T11:02:34.948Z,16.57
2018-11-02T11:05:09.349Z,15.48
2018-11-02T11:07:41.899Z,16.50
2018-11-02T11:10:13.721Z,18.42
2018-11-02T11:12:45.892Z,15.67
2018-11-02T11:15:20.837Z,13.85
2018-11-02T11:17:52.887Z,13.40
2018-11-02T11:20:24.879Z,12.63
2018-11-02T11:22:57.656Z,13.48
2018-11-02T11:25:30.342Z,14.83
2018-11-02T11:28:02.369Z,13.75
2018-11-02T11:30:34.373Z,12.10
2018-11-02T11:33:06.824Z,15.30
2018-11-02T11:35:38.835Z,17.20
2018-11-02T11:38:10.916Z,12.80
2018-11-02T11:40:42.793Z,18.87
2018-11-02T11:43:14.772Z,15.43
2018-11-02T11:45:46.431Z,15.80
2018-11-02T11:48:18.456Z,12.80
2018-11-02T11:50:51.049Z,14.40
2018-11-02T11:53:23.078Z,17.45
2018-11-02T11:55:55.132Z,15.03
2018-11-02T11:58:27.148Z,12.53
2018-11-02T12:00:58.980Z,13.90
2018-11-02T12:03:30.856Z,14.10
2018-11-02T12:06:02.638Z,9.18
2018-11-02T12:08:35.414Z,12.00
2018-11-02T12:11:07.550Z,10.72
2018-11-02T12:13:39.440Z,12.65
2018-11-02T12:16:11.284Z,13.80
2018-11-02T12:21:22.137Z,13.33
2018-11-02T12:23:54.713Z,12.20
2018-11-02T12:26:27.496Z,13.53
2018-11-02T12:28:59.910Z,16.23
2018-11-02T12:31:31.592Z,12.60
2018-11-02T12:34:04.625Z,10.82
2018-11-02T12:39:13.495Z,11.47
2018-11-02T12:44:21.572Z,13.03
2018-11-02T12:46:55.221Z,10.28
2018-11-02T12:49:28.254Z,17.95
2018-11-02T12:51:59.971Z,13.47
2018-11-02T12:54:32.467Z,15.68
2018-11-02T12:57:04.303Z,11.70
2018-11-02T12:59:36.034Z,16.80
2018-11-02T13:02:08.391Z,11.63
2018-11-02T13:04:39.983Z,10.78
2018-11-02T13:07:11.847Z,11.22
2018-11-02T13:09:43.640Z,10.25
2018-11-02T13:14:52.676Z,14.67
2018-11-02T13:17:24.552Z,15.43
2018-11-02T13:19:56.394Z,16.00
2018-11-02T13:22:28.623Z,10.25
2018-11-02T13:25:00.519Z,16.40
2018-11-02T13:27:33.433Z,21.77
2018-11-02T13:30:06.034Z,18.63
2018-11-02T13:32:38.142Z,14.87
2018-11-02T13:35:14.469Z,12.37
2018-11-02T13:37:46.567Z,16.77
2018-11-02T13:40:19.231Z,19.63
2018-11-02T13:42:51.734Z,13.08
2018-11-02T13:45:23.692Z,21.02
2018-11-02T13:47:55.856Z,16.03
2018-11-02T13:50:27.379Z,17.17
2018-11-02T13:52:59.362Z,20.43
2018-11-02T13:55:31.507Z,19.80
2018-11-02T13:58:03.228Z,25.80
2018-11-02T14:00:35.997Z,24.07
2018-11-02T14:03:08.047Z,25.45
2018-11-02T14:05:40.085Z,27.47
2018-11-02T14:08:11.915Z,22.30
2018-11-02T14:10:43.976Z,17.90
2018-11-02T14:13:16.108Z,19.83
2018-11-02T14:15:48.125Z,22.13
2018-11-02T14:18:19.883Z,19.00
2018-11-02T14:20:52.001Z,21.12
2018-11-02T14:23:24.025Z,21.20
2018-11-02T14:25:56.837Z,24.00
2018-11-02T14:28:28.904Z,27.17
2018-11-02T14:31:00.671Z,35.33
2018-11-02T14:33:32.508Z,39.50
2018-11-02T14:36:04.974Z,38.43
2018-11-02T14:38:36.787Z,29.87
2018-11-02T14:41:08.582Z,31.17
2018-11-02T14:43:40.368Z,37.80
2018-11-02T14:46:12.457Z,31.45
2018-11-02T14:48:44.781Z,34.30
2018-11-02T14:51:16.705Z,28.90
2018-11-02T14:53:48.943Z,38.10
2018-11-02T14:56:20.520Z,27.07
2018-11-02T14:58:52.084Z,30.90
2018-11-02T15:01:23.994Z,32.90
2018-11-02T15:03:55.500Z,34.73
2018-11-02T15:06:27.695Z,37.87
2018-11-02T15:08:59.646Z,32.77
2018-11-02T15:11:31.985Z,31.43
2018-11-02T15:14:04.332Z,28.10
2018-11-02T15:16:36.066Z,31.83
2018-11-02T15:19:08.165Z,29.63
2018-11-02T15:21:39.765Z,35.40
2018-11-02T15:24:11.691Z,32.35
2018-11-02T15:26:43.577Z,27.20
2018-11-02T15:29:15.364Z,30.57
2018-11-02T15:31:46.949Z,39.57
2018-11-02T15:34:18.849Z,44.13
2018-11-02T15:36:50.612Z,42.55
2018-11-02T15:39:22.724Z,37.53
2018-11-02T15:44:31.321Z,30.47
2018-11-02T15:47:02.839Z,28.47
2018-11-02T15:49:42.899Z,25.67
2018-11-02T15:52:15.716Z,32.15
2018-11-02T15:54:47.544Z,25.63
2018-11-02T15:57:19.361Z,41.13
2018-11-02T15:59:50.935Z,37.55
2018-11-02T16:02:22.579Z,37.35
2018-11-02T16:04:54.501Z,40.03
2018-11-02T16:07:26.175Z,41.60
2018-11-02T16:09:58.186Z,48.78
2018-11-02T16:12:30.366Z,44.40
2018-11-02T16:15:02.067Z,53.05
2018-11-02T16:17:33.559Z,48.67
2018-11-02T16:20:12.589Z,53.83
2018-11-02T16:22:44.709Z,52.80
2018-11-02T16:25:17.486Z,53.70
2018-11-02T16:27:49.909Z,58.93
2018-11-02T16:30:22.083Z,54.40
2018-11-02T16:32:54.180Z,52.30
2018-11-02T16:35:26.622Z,57.83
2018-11-02T16:37:59.875Z,59.48
2018-11-02T16:40:31.611Z,51.42
2018-11-02T16:43:06.453Z,53.10
2018-11-02T16:45:38.747Z,53.03
2018-11-02T16:48:12.591Z,60.83
2018-11-02T16:50:44.348Z,67.97
2018-11-02T16:53:16.521Z,58.97
2018-11-02T16:55:48.733Z,65.00
2018-11-02T16:58:20.368Z,60.65
2018-11-02T17:00:52.531Z,62.58
2018-11-02T17:03:24.460Z,54.53
2018-11-02T17:06:01.950Z,52.27
2018-11-02T17:08:39.143Z,54.87
2018-11-02T17:11:16.459Z,52.13
2018-11-02T17:13:54.465Z,52.17
2018-11-02T17:16:32.361Z,47.90
2018-11-02T17:19:14.140Z,46.63
2018-11-02T17:21:51.538Z,47.57
2018-11-02T17:24:28.564Z,49.50
2018-11-02T17:27:06.553Z,51.88
2018-11-02T17:29:43.483Z,46.83
2018-11-02T17:32:20.842Z,56.15
2018-11-02T17:34:58.023Z,42.60
2018-11-02T17:37:35.462Z,41.03
2018-11-02T17:40:14.350Z,55.63
2018-11-02T17:42:51.438Z,46.90
2018-11-02T17:45:28.642Z,50.33
2018-11-02T17:48:07.041Z,50.20
2018-11-02T17:50:43.963Z,45.78
2018-11-02T17:53:21.757Z,51.27
2018-11-02T17:55:59.038Z,49.20
2018-11-02T17:58:36.211Z,57.60
2018-11-02T18:03:50.209Z,52.47
2018-11-02T18:06:28.439Z,56.17
2018-11-02T18:09:10.256Z,51.27
2018-11-02T18:11:47.608Z,65.03
2018-11-02T18:14:24.457Z,60.65
2018-11-02T18:17:02.210Z,54.50
2018-11-02T18:19:39.375Z,49.20
2018-11-02T18:22:16.796Z,50.40
2018-11-02T18:24:57.973Z,56.23
2018-11-02T18:27:39.443Z,54.15
2018-11-02T18:30:17.829Z,48.02
2018-11-02T18:32:56.596Z,51.07
2018-11-02T18:35:36.816Z,49.40
2018-11-02T18:38:17.364Z,44.33
2018-11-02T18:40:55.973Z,50.30
2018-11-02T18:49:00.754Z,43.48
2018-11-02T18:51:40.413Z,43.17
2018-11-02T18:54:21.899Z,44.45
2018-11-02T18:57:01.987Z,45.73
2018-11-02T19:02:17.916Z,47.50
2018-11-02T19:04:59.406Z,44.50
2018-11-02T19:07:37.611Z,42.90
2018-11-02T19:10:18.456Z,44.00
2018-11-02T19:12:57.951Z,50.03
2018-11-02T19:18:24.122Z,38.27
2018-11-02T19:21:03.068Z,43.80
2018-11-02T19:23:41.538Z,44.60
2018-11-02T19:28:56.853Z,44.53
2018-11-02T19:31:36.386Z,43.83
2018-11-02T19:36:51.017Z,47.70
2018-11-02T19:39:30.999Z,44.67
2018-11-02T19:42:11.193Z,47.40
2018-11-02T19:44:54.214Z,39.83
2018-11-02T19:50:19.081Z,39.70
2018-11-02T19:52:59.334Z,44.33
2018-11-02T19:55:39.364Z,41.03
2018-11-02T19:58:19.869Z,47.87
2018-11-02T20:00:58.905Z,37.63
2018-11-02T20:06:15.875Z,41.07
2018-11-02T20:08:57.020Z,45.85
2018-11-02T20:14:13.648Z,39.23
2018-11-02T20:16:53.066Z,48.90
2018-11-02T20:19:33.377Z,51.23
2018-11-02T20:22:12.843Z,45.17
2018-11-02T20:24:52.155Z,54.25
2018-11-02T20:27:31.395Z,47.70
2018-11-02T20:30:21.297Z,47.79
2018-11-02T20:33:01.980Z,48.47
2018-11-02T20:35:45.832Z,51.23
2018-11-02T20:38:24.566Z,46.50
2018-11-02T20:41:03.918Z,46.47
2018-11-02T20:43:53.789Z,46.27
2018-11-02T20:46:34.112Z,54.97
2018-11-02T20:51:53.471Z,56.83
2018-11-02T21:00:01.466Z,49.30
2018-11-02T21:02:42.386Z,45.83
2018-11-02T21:07:58.854Z,41.10
2018-11-02T21:10:39.995Z,48.63
2018-11-02T21:15:57.779Z,42.50
2018-11-02T21:21:18.972Z,48.73
2018-11-02T21:26:35.944Z,49.73
2018-11-02T21:29:17.270Z,47.35
2018-11-02T21:31:56.346Z,49.80
2018-11-02T21:37:11.880Z,61.87
2018-11-02T21:39:58.118Z,46.27
2018-11-02T21:42:38.227Z,48.03
2018-11-02T21:45:19.875Z,49.40
2018-11-02T21:48:00.045Z,48.00
2018-11-02T21:50:39.352Z,46.37
2018-11-02T21:53:18.176Z,52.48
2018-11-02T21:55:55.944Z,45.48
2018-11-02T21:58:32.955Z,46.15
2018-11-02T22:01:09.971Z,43.73
2018-11-02T22:03:47.819Z,43.92
2018-11-02T22:06:25.685Z,51.93
2018-11-02T22:09:08.799Z,46.48
2018-11-02T22:11:46.895Z,48.33
2018-11-02T22:14:24.011Z,45.73
2018-11-02T22:17:01.243Z,49.23
2018-11-02T22:19:38.598Z,45.03
2018-11-02T22:22:15.860Z,52.27
2018-11-02T22:24:53.435Z,49.95
2018-11-02T22:27:30.560Z,45.67
2018-11-02T22:30:14.422Z,47.78
2018-11-02T22:32:51.611Z,39.33
2018-11-02T22:35:28.814Z,43.03
2018-11-02T22:38:06.386Z,47.25
2018-11-02T22:40:43.673Z,46.10
2018-11-02T22:43:21.701Z,50.63
2018-11-02T22:45:59.165Z,50.50
2018-11-02T22:48:36.965Z,49.27
2018-11-02T22:51:14.744Z,46.17
2018-11-02T22:53:52.564Z,46.10
2018-11-02T22:56:29.880Z,54.73
2018-11-02T22:59:06.797Z,47.85
2018-11-02T23:01:43.836Z,43.50
2018-11-02T23:04:20.889Z,44.90
2018-11-02T23:07:02.427Z,49.33
2018-11-02T23:09:39.812Z,46.17
2018-11-02T23:14:53.240Z,49.30
2018-11-02T23:17:30.067Z,53.67
2018-11-02T23:20:10.770Z,51.25
2018-11-02T23:22:47.728Z,45.33
2018-11-02T23:25:24.861Z,44.75
2018-11-02T23:28:01.799Z,45.50
2018-11-02T23:30:38.762Z,39.03
2018-11-02T23:33:16.284Z,41.53
2018-11-02T23:35:53.570Z,40.80
2018-11-02T23:38:32.398Z,54.80
2018-11-02T23:41:09.781Z,49.30
2018-11-02T23:43:47.135Z,50.77
2018-11-02T23:49:00.726Z,46.20
2018-11-02T23:51:37.785Z,50.70
2018-11-02T23:54:16.046Z,44.55
2018-11-02T23:56:53.847Z,41.83
2018-11-02T23:59:30.991Z,46.40
